createdAt,value
2019-04-26T13:53:54.504Z,29152.00
2019-04-26T13:54:55.395Z,26368.00
2019-04-26T13:55:54.420Z,24128.00
2019-04-26T13:56:54.898Z,22432.00
2019-04-26T13:57:55.971Z,21056.00
2019-04-26T13:58:58.175Z,19712.00
2019-04-26T13:59:55.336Z,18592.00
2019-04-26T14:00:54.361Z,17568.00
2019-04-26T14:01:54.241Z,16448.00
2019-04-26T14:02:54.194Z,15508.00
2019-04-26T14:03:54.191Z,14640.00
2019-04-26T14:04:54.174Z,14184.00
2019-04-26T14:05:54.156Z,13804.00
2019-04-26T14:06:54.228Z,13700.00
2019-04-26T14:07:55.408Z,14132.00
2019-04-26T14:08:58.111Z,14960.00
2019-04-26T14:09:55.910Z,15772.00
2019-04-26T14:10:54.108Z,16800.00
2019-04-26T14:11:54.122Z,17760.00
2019-04-26T14:12:54.101Z,18560.00
2019-04-26T14:13:55.431Z,19456.00
2019-04-26T14:14:55.070Z,20576.00
2019-04-26T14:15:54.066Z,22368.00
2019-04-26T14:16:55.809Z,23328.00
2019-04-26T14:17:54.089Z,23392.00
2019-04-26T14:18:54.019Z,22592.00
2019-04-26T14:19:53.998Z,22048.00
2019-04-26T14:20:54.867Z,21344.00
2019-04-26T14:21:53.995Z,21120.00
2019-04-26T14:22:53.996Z,20448.00
2019-04-26T14:23:53.966Z,20032.00
2019-04-26T14:24:57.031Z,19520.00
2019-04-26T14:25:55.569Z,19328.00
2019-04-26T14:26:53.927Z,19168.00
2019-04-26T14:27:53.928Z,18944.00
2019-04-26T14:28:54.239Z,18720.00
2019-04-26T14:29:54.905Z,19392.00
2019-04-26T14:30:53.970Z,21440.00
2019-04-26T14:31:53.961Z,23584.00
2019-04-26T14:32:57.308Z,24480.00
2019-04-26T14:33:53.855Z,23552.00
2019-04-26T14:34:53.855Z,21600.00
2019-04-26T14:35:53.863Z,20288.00
2019-04-26T14:37:05.955Z,19616.00
2019-04-26T14:37:54.925Z,19328.00
2019-04-26T14:39:05.174Z,18880.00
2019-04-26T14:39:55.299Z,17984.00
2019-04-26T14:41:03.852Z,16992.00
2019-04-26T14:41:57.129Z,15828.00
2019-04-26T14:43:06.141Z,15036.00
2019-04-26T14:43:56.683Z,14552.00
2019-04-26T14:44:54.499Z,14776.00
2019-04-26T14:45:56.083Z,15752.00
2019-04-26T14:46:56.794Z,16960.00
2019-04-26T14:47:53.755Z,17536.00
2019-04-26T14:49:01.798Z,18080.00
2019-04-26T14:49:57.764Z,18112.00
2019-04-26T14:50:53.669Z,17472.00
2019-04-26T14:51:56.069Z,16704.00
2019-04-26T14:52:53.648Z,15868.00
2019-04-26T14:53:53.639Z,15740.00
2019-04-26T14:54:53.653Z,16256.00
2019-04-26T14:55:54.694Z,16608.00
2019-04-26T14:56:53.599Z,16640.00
2019-04-26T14:57:54.088Z,16416.00
2019-04-26T14:58:53.589Z,15852.00
2019-04-26T14:59:53.564Z,15236.00
2019-04-26T15:00:55.917Z,14876.00
2019-04-26T15:01:53.579Z,14444.00
2019-04-26T15:02:56.277Z,13908.00
2019-04-26T15:03:57.158Z,13212.00
2019-04-26T15:04:53.525Z,12520.00
2019-04-26T15:05:54.036Z,11984.00
2019-04-26T15:06:58.022Z,11776.00
2019-04-26T15:07:54.473Z,11604.00
2019-04-26T15:08:53.514Z,11416.00
2019-04-26T15:09:53.454Z,11400.00
2019-04-26T15:11:01.050Z,11408.00
2019-04-26T15:12:00.956Z,11724.00
2019-04-26T15:13:05.839Z,12044.00
2019-04-26T15:13:54.435Z,12520.00
2019-04-26T15:14:56.678Z,13188.00
2019-04-26T15:15:53.394Z,13344.00
2019-04-26T15:16:53.402Z,12864.00
2019-04-26T15:17:59.295Z,11972.00
2019-04-26T15:18:54.355Z,11496.00
2019-04-26T15:19:53.843Z,11480.00
2019-04-26T15:20:56.944Z,11644.00
2019-04-26T15:21:54.350Z,12396.00
2019-04-26T15:22:53.322Z,13344.00
2019-04-26T15:23:55.297Z,14104.00
2019-04-26T15:24:54.290Z,14216.00
2019-04-26T15:25:53.308Z,13056.00
2019-04-26T15:26:53.264Z,11600.00
2019-04-26T15:27:53.255Z,9888.00
2019-04-26T15:28:53.246Z,8500.00
2019-04-26T15:29:53.259Z,7368.00
2019-04-26T15:30:53.239Z,6512.00
2019-04-26T15:31:53.798Z,6184.00
2019-04-26T15:32:53.207Z,6248.00
2019-04-26T15:33:53.208Z,6808.00
2019-04-26T15:34:54.986Z,7800.00
2019-04-26T15:35:53.174Z,9124.00
2019-04-26T15:36:54.280Z,10248.00
2019-04-26T15:37:53.519Z,11824.00
2019-04-26T15:38:53.142Z,13636.00
2019-04-26T15:39:56.775Z,15608.00
2019-04-26T15:40:54.125Z,17408.00
2019-04-26T15:41:54.409Z,18656.00
2019-04-26T15:43:01.124Z,19584.00
2019-04-26T15:43:54.081Z,20256.00
2019-04-26T15:44:53.075Z,20736.00
2019-04-26T15:45:53.092Z,21088.00
2019-04-26T15:46:53.760Z,21376.00
2019-04-26T15:47:53.064Z,21088.00
2019-04-26T15:48:54.648Z,21216.00
2019-04-26T15:49:53.012Z,20672.00
2019-04-26T15:51:02.748Z,20160.00
2019-04-26T15:51:56.399Z,19776.00
2019-04-26T15:52:54.037Z,19392.00
2019-04-26T15:53:53.132Z,18848.00
2019-04-26T15:54:58.958Z,18368.00
2019-04-26T15:55:54.034Z,18048.00
2019-04-26T15:56:53.879Z,17728.00
2019-04-26T15:57:53.141Z,17344.00
2019-04-26T15:58:52.928Z,17120.00
2019-04-26T15:59:54.405Z,17056.00
2019-04-26T16:00:52.956Z,16864.00
2019-04-26T16:01:52.936Z,15820.00
2019-04-26T16:02:54.585Z,15712.00
2019-04-26T16:03:53.136Z,15440.00
2019-04-26T16:04:54.426Z,17024.00
2019-04-26T16:05:52.840Z,16672.00
2019-04-26T16:06:52.843Z,16320.00
2019-04-26T16:07:53.013Z,15720.00
2019-04-26T16:08:52.829Z,13780.00
2019-04-26T16:09:55.872Z,13392.00
2019-04-26T16:10:53.186Z,13836.00
2019-04-26T16:11:55.170Z,13888.00
2019-04-26T16:12:56.289Z,13872.00
2019-04-26T16:13:55.485Z,13460.00
2019-04-26T16:14:52.782Z,12668.00
2019-04-26T16:15:52.731Z,11956.00
2019-04-26T16:16:52.742Z,12936.00
2019-04-26T16:17:52.806Z,14180.00
2019-04-26T16:18:55.973Z,12080.00
2019-04-26T16:19:56.085Z,10796.00
2019-04-26T16:20:53.679Z,9104.00
2019-04-26T16:21:55.311Z,8664.00
2019-04-26T16:22:53.398Z,8760.00
2019-04-26T16:23:55.250Z,9336.00
2019-04-26T16:24:53.155Z,8824.00
2019-04-26T16:25:52.661Z,8584.00
2019-04-26T16:26:55.824Z,8480.00
2019-04-26T16:27:52.616Z,8460.00
2019-04-26T16:28:52.598Z,8608.00
2019-04-26T16:29:58.290Z,8928.00
2019-04-26T16:30:53.570Z,9312.00
2019-04-26T16:31:52.976Z,9736.00
2019-04-26T16:32:58.666Z,10280.00
2019-04-26T16:33:53.541Z,10904.00
2019-04-26T16:34:52.895Z,11348.00
2019-04-26T16:35:52.558Z,11624.00
2019-04-26T16:36:52.700Z,12000.00
2019-04-26T16:37:52.502Z,12224.00
2019-04-26T16:38:56.054Z,12268.00
2019-04-26T16:39:52.517Z,12492.00
2019-04-26T16:40:54.930Z,12976.00
2019-04-26T16:41:52.528Z,13008.00
2019-04-26T16:42:56.599Z,13416.00
2019-04-26T16:43:54.669Z,13112.00
2019-04-26T16:44:53.154Z,13620.00
2019-04-26T16:45:54.274Z,13480.00
2019-04-26T16:47:01.130Z,13420.00
2019-04-26T16:47:53.463Z,13084.00
2019-04-26T16:48:57.071Z,12544.00
2019-04-26T16:49:54.642Z,12252.00
2019-04-26T16:50:53.082Z,11840.00
2019-04-26T16:52:01.482Z,11688.00
2019-04-26T16:52:53.341Z,11868.00
2019-04-26T16:54:06.312Z,12044.00
2019-04-26T16:55:02.022Z,12660.00
2019-04-26T16:55:53.429Z,13380.00
2019-04-26T16:56:52.698Z,13588.00
2019-04-26T16:57:57.948Z,13496.00
2019-04-26T16:58:54.726Z,13160.00
2019-04-26T17:00:57.647Z,12216.00
2019-04-26T17:01:53.656Z,11572.00
2019-04-26T17:02:52.752Z,10808.00
2019-04-26T17:03:53.421Z,10056.00
2019-04-26T17:04:53.404Z,9508.00
2019-04-26T17:06:04.748Z,9132.00
2019-04-26T17:06:53.185Z,9100.00
2019-04-26T17:07:53.895Z,8924.00
2019-04-26T17:09:00.219Z,9092.00
2019-04-26T17:09:51.049Z,12708.00
2019-04-26T17:09:58.206Z,9360.00
2019-04-26T17:10:56.689Z,9584.00
2019-04-26T17:11:53.190Z,9648.00
2019-04-26T17:12:54.327Z,9456.00
2019-04-26T17:13:56.771Z,9064.00
2019-04-26T17:14:53.089Z,8504.00
2019-04-26T17:15:58.007Z,7912.00
2019-04-26T17:16:53.403Z,7488.00
2019-04-26T17:17:52.669Z,7164.00
2019-04-26T17:18:55.658Z,7192.00
2019-04-26T17:19:53.122Z,7124.00
2019-04-26T17:20:53.122Z,7000.00
2019-04-26T17:21:56.529Z,7336.00
2019-04-26T17:22:59.600Z,7216.00
2019-04-26T17:23:55.096Z,7436.00
2019-04-26T17:24:53.398Z,7312.00
2019-04-26T17:25:55.218Z,7000.00
2019-04-26T17:26:52.958Z,6604.00
2019-04-26T17:27:52.916Z,6392.00
2019-04-26T17:28:53.137Z,6152.00
2019-04-26T17:29:52.731Z,6048.00
2019-04-26T17:30:53.077Z,6068.00
2019-04-26T17:31:52.266Z,6048.00
2019-04-26T17:32:53.512Z,5940.00
2019-04-26T17:33:51.896Z,5800.00
2019-04-26T17:34:54.310Z,5612.00
2019-04-26T17:35:51.860Z,5452.00
2019-04-26T17:36:52.259Z,5384.00
2019-04-26T17:37:51.837Z,5424.00
2019-04-26T17:38:51.842Z,5424.00
2019-04-26T17:39:55.273Z,5396.00
2019-04-26T17:40:51.850Z,5172.00
2019-04-26T17:41:54.215Z,4932.00
2019-04-26T17:42:51.777Z,4808.00
2019-04-26T17:43:56.026Z,4724.00
2019-04-26T17:44:52.770Z,4648.00
2019-04-26T17:45:51.757Z,4568.00
2019-04-26T17:46:56.281Z,4488.00
2019-04-26T17:47:53.053Z,4384.00
2019-04-26T17:48:51.746Z,4240.00
2019-04-26T17:49:52.453Z,4076.00
2019-04-26T17:50:51.704Z,3884.00
2019-04-26T17:51:57.724Z,3688.00
2019-04-26T17:52:52.668Z,3492.00
2019-04-26T17:54:18.479Z,3284.00
2019-04-26T17:54:52.775Z,3072.00
2019-04-26T17:55:54.751Z,2888.00
2019-04-26T17:56:51.681Z,2772.00
2019-04-26T17:57:52.545Z,2712.00
2019-04-26T17:58:54.501Z,2704.00
2019-04-26T17:59:51.718Z,2780.00
2019-04-26T18:00:51.638Z,2936.00
2019-04-26T18:02:00.138Z,3056.00
2019-04-26T18:02:52.625Z,3128.00
2019-04-26T18:03:55.633Z,3136.00
2019-04-26T18:04:59.044Z,3080.00
2019-04-26T18:05:57.104Z,2992.00
2019-04-26T18:07:01.802Z,2868.00
2019-04-26T18:07:58.409Z,2768.00
2019-04-26T18:08:55.217Z,2688.00
2019-04-26T18:09:52.523Z,2616.00
2019-04-26T18:10:51.611Z,2552.00
2019-04-26T18:11:55.247Z,2464.00
2019-04-26T18:12:52.450Z,2356.00
2019-04-26T18:13:52.312Z,2228.00
2019-04-26T18:14:51.445Z,2056.00
2019-04-26T18:15:52.854Z,1864.00
2019-04-26T18:16:53.085Z,1672.00
2019-04-26T18:17:51.608Z,1512.00
2019-04-26T18:18:54.413Z,1388.00
2019-04-26T18:19:51.423Z,1292.00
2019-04-26T18:20:51.421Z,1224.00
2019-04-26T18:21:56.528Z,1176.00
2019-04-26T18:22:52.360Z,1144.00
2019-04-26T18:23:54.359Z,1104.00
2019-04-26T18:24:51.407Z,1044.00
2019-04-26T18:25:52.685Z,988.00
2019-04-26T18:26:52.249Z,936.00
2019-04-26T18:27:53.512Z,888.00
2019-04-26T18:28:53.356Z,852.00
2019-04-26T18:29:53.159Z,824.00
2019-04-26T18:30:53.009Z,796.00
2019-04-26T18:31:53.589Z,776.00
2019-04-26T18:32:51.253Z,748.00
2019-04-26T18:33:54.752Z,716.00
2019-04-26T18:34:53.658Z,680.00
2019-04-26T18:35:55.907Z,644.00
2019-04-26T18:36:52.732Z,588.00
2019-04-26T18:37:51.187Z,532.00
2019-04-26T18:38:51.238Z,468.00
2019-04-26T18:39:51.168Z,400.00
2019-04-26T18:41:01.580Z,336.00
2019-04-26T18:41:53.669Z,280.00
2019-04-26T18:42:53.058Z,232.00
2019-04-26T18:43:55.573Z,200.00
2019-04-26T18:44:52.101Z,172.00
2019-04-26T18:45:51.106Z,144.00
2019-04-26T18:46:51.076Z,120.00
2019-04-26T18:48:00.965Z,104.00
2019-04-26T18:48:53.476Z,88.00
2019-04-26T18:49:53.592Z,76.00
2019-04-26T18:50:52.044Z,68.00
2019-04-26T18:51:51.016Z,56.00
2019-04-26T18:52:52.610Z,48.00
2019-04-26T18:53:51.195Z,40.00
2019-04-26T18:54:51.644Z,32.00
2019-04-26T18:55:50.972Z,24.00
2019-04-26T18:56:50.976Z,24.00
2019-04-26T18:57:56.344Z,20.00
2019-04-26T18:58:51.944Z,20.00
2019-04-26T18:59:52.808Z,20.00
2019-04-26T19:00:50.922Z,16.00
2019-04-26T19:01:50.924Z,16.00
2019-04-26T19:02:54.357Z,12.00
2019-04-26T19:03:51.577Z,12.00
2019-04-26T19:04:50.890Z,8.00
2019-04-26T19:05:50.932Z,8.00
2019-04-26T19:06:51.154Z,8.00
2019-04-26T19:07:51.611Z,8.00
2019-04-26T19:08:57.615Z,4.00
2019-04-26T19:10:02.937Z,4.00
2019-04-26T19:10:59.185Z,4.00
2019-04-26T19:11:52.829Z,4.00
2019-04-26T19:12:52.253Z,4.00
2019-04-26T19:13:51.553Z,0.00
2019-04-26T19:15:02.461Z,4.00
2019-04-26T19:15:51.765Z,4.00
2019-04-26T19:16:56.740Z,4.00
2019-04-26T19:17:52.196Z,0.00
2019-04-26T19:18:51.764Z,0.00
2019-04-26T19:19:57.536Z,0.00
2019-04-26T19:20:50.813Z,0.00
2019-04-26T19:21:53.054Z,0.00
2019-04-26T19:22:53.207Z,0.00
2019-04-26T19:23:51.911Z,0.00
2019-04-26T19:24:55.871Z,0.00
2019-04-26T19:25:52.078Z,0.00
2019-04-26T19:26:51.920Z,0.00
2019-04-26T19:27:53.878Z,0.00
2019-04-26T19:28:52.918Z,0.00
2019-04-26T19:29:51.801Z,0.00
2019-04-26T19:30:52.998Z,0.00
2019-04-26T19:31:52.237Z,0.00
2019-04-26T19:32:51.986Z,0.00
2019-04-26T19:33:51.700Z,0.00
2019-04-26T19:34:52.359Z,0.00
2019-04-26T19:35:50.580Z,0.00
2019-04-26T19:36:52.360Z,0.00
2019-04-26T19:37:51.795Z,0.00
2019-04-26T19:38:51.372Z,0.00
2019-04-26T19:39:50.649Z,0.00
2019-04-26T19:40:52.026Z,0.00
2019-04-26T19:41:52.012Z,0.00
2019-04-26T19:42:57.182Z,0.00
2019-04-26T19:43:52.138Z,0.00
2019-04-26T19:45:10.228Z,0.00
2019-04-26T19:45:51.992Z,0.00
2019-04-26T19:46:53.644Z,0.00
2019-04-26T19:47:52.065Z,0.00
2019-04-26T19:48:55.294Z,0.00
2019-04-26T19:49:53.724Z,0.00
2019-04-26T19:50:50.625Z,0.00
2019-04-26T19:51:52.061Z,0.00
2019-04-26T19:52:51.717Z,0.00
2019-04-26T19:53:51.672Z,0.00
2019-04-26T19:54:51.264Z,0.00
2019-04-26T19:55:51.466Z,0.00
2019-04-26T19:56:51.332Z,0.00
2019-04-26T19:57:51.819Z,0.00
2019-04-26T19:58:57.282Z,0.00
2019-04-26T19:59:52.571Z,0.00
2019-04-26T20:00:50.304Z,0.00
2019-04-26T20:01:55.173Z,0.00
2019-04-26T20:02:52.333Z,0.00
2019-04-26T20:03:53.754Z,0.00
2019-04-26T20:04:51.467Z,0.00
2019-04-26T20:05:50.231Z,0.00
2019-04-26T20:06:54.092Z,0.00
2019-04-26T20:07:51.801Z,0.00
2019-04-26T20:08:51.876Z,0.00
2019-04-26T20:09:50.237Z,0.00
2019-04-26T20:10:51.970Z,0.00
2019-04-26T20:11:51.288Z,0.00
2019-04-26T20:12:52.731Z,0.00
2019-04-26T20:13:51.898Z,0.00
2019-04-26T20:14:53.370Z,0.00
2019-04-26T20:15:53.067Z,0.00
2019-04-26T20:16:52.131Z,0.00
2019-04-26T20:17:58.898Z,0.00
2019-04-26T20:18:52.329Z,0.00
2019-04-26T20:19:53.929Z,0.00
2019-04-26T20:20:52.017Z,0.00
2019-04-26T20:21:51.201Z,0.00
2019-04-26T20:22:51.470Z,0.00
2019-04-26T20:23:52.684Z,0.00
2019-04-26T20:24:53.806Z,0.00
2019-04-26T20:25:52.870Z,0.00
2019-04-26T20:26:49.988Z,0.00
2019-04-26T20:27:53.803Z,0.00
2019-04-26T20:28:51.436Z,0.00
2019-04-26T20:29:51.561Z,0.00
2019-04-26T20:30:51.502Z,0.00
2019-04-26T20:31:51.933Z,0.00
2019-04-26T20:32:52.449Z,0.00
2019-04-26T20:33:50.951Z,0.00
2019-04-26T20:34:50.269Z,0.00
2019-04-26T20:35:51.445Z,0.00
2019-04-26T20:36:49.929Z,0.00
2019-04-26T20:37:49.860Z,0.00
2019-04-26T20:38:49.993Z,0.00
2019-04-26T20:39:54.599Z,0.00
2019-04-26T20:40:53.366Z,0.00
2019-04-26T20:42:00.507Z,0.00
2019-04-26T20:42:51.234Z,0.00
2019-04-26T20:44:03.066Z,0.00
2019-04-26T20:44:53.695Z,0.00
2019-04-26T20:46:08.845Z,0.00
2019-04-26T20:46:51.952Z,0.00
2019-04-26T20:47:52.040Z,0.00
2019-04-26T20:48:52.028Z,0.00
2019-04-26T20:50:51.995Z,0.00
2019-04-26T20:51:49.722Z,0.00
2019-04-26T20:52:55.508Z,0.00
2019-04-26T20:53:50.702Z,0.00
2019-04-26T20:54:52.629Z,0.00
2019-04-26T20:55:49.669Z,0.00
2019-04-26T20:56:52.570Z,0.00
2019-04-26T20:57:51.946Z,0.00
2019-04-26T20:58:49.650Z,0.00
2019-04-26T20:59:52.664Z,0.00
2019-04-26T21:00:54.638Z,0.00
2019-04-26T21:02:02.710Z,0.00
2019-04-26T21:02:54.166Z,0.00
2019-04-26T21:03:51.763Z,0.00
2019-04-26T21:04:51.368Z,0.00
2019-04-26T21:05:53.072Z,0.00
2019-04-26T21:06:51.761Z,0.00
2019-04-26T21:07:50.944Z,0.00
2019-04-26T21:08:49.551Z,0.00
2019-04-26T21:09:49.510Z,0.00
2019-04-26T21:10:49.504Z,0.00
2019-04-26T21:11:51.235Z,0.00
2019-04-26T21:12:52.254Z,0.00
2019-04-26T21:13:51.957Z,0.00
2019-04-26T21:14:49.475Z,0.00
2019-04-26T21:15:57.751Z,0.00
2019-04-26T21:16:50.624Z,0.00
2019-04-26T21:17:49.457Z,0.00
2019-04-26T21:18:49.832Z,0.00
2019-04-26T21:19:49.972Z,0.00
2019-04-26T21:20:49.399Z,0.00
2019-04-26T21:21:50.406Z,0.00
2019-04-26T21:22:49.418Z,0.00
2019-04-26T21:23:49.357Z,0.00
2019-04-26T21:24:50.803Z,0.00
2019-04-26T21:25:52.326Z,0.00
2019-04-26T21:26:52.764Z,0.00
2019-04-26T21:27:51.731Z,0.00
2019-04-26T21:28:49.389Z,0.00
2019-04-26T21:29:52.395Z,0.00
2019-04-26T21:30:51.590Z,0.00
2019-04-26T21:31:49.289Z,0.00
2019-04-26T21:32:51.459Z,0.00
2019-04-26T21:33:50.281Z,0.00
2019-04-26T21:34:50.688Z,0.00
2019-04-26T21:35:49.337Z,0.00
2019-04-26T21:36:49.294Z,0.00
2019-04-26T21:37:53.180Z,0.00
2019-04-26T21:38:50.569Z,0.00
2019-04-26T21:39:49.270Z,0.00
2019-04-26T21:40:49.241Z,0.00
2019-04-26T21:41:49.171Z,0.00
2019-04-26T21:42:49.157Z,0.00
2019-04-26T21:43:49.151Z,0.00
2019-04-26T21:44:52.407Z,0.00
2019-04-26T21:45:49.197Z,0.00
2019-04-26T21:46:49.507Z,0.00
2019-04-26T21:47:49.092Z,0.00
2019-04-26T21:48:49.104Z,0.00
2019-04-26T21:49:52.695Z,0.00
2019-04-26T21:50:50.069Z,0.00
2019-04-26T21:51:52.091Z,0.00
2019-04-26T21:52:49.050Z,0.00
2019-04-26T21:53:49.055Z,0.00
2019-04-26T21:54:53.137Z,0.00
2019-04-26T21:55:49.998Z,0.00
2019-04-26T21:56:49.864Z,0.00
2019-04-26T21:57:48.979Z,0.00
2019-04-26T21:58:48.982Z,0.00
2019-04-26T21:59:48.977Z,0.00
2019-04-26T22:00:48.955Z,0.00
2019-04-26T22:01:52.669Z,0.00
2019-04-26T22:02:49.934Z,0.00
2019-04-26T22:03:54.341Z,0.00
2019-04-26T22:04:49.918Z,0.00
2019-04-26T22:05:49.969Z,0.00
2019-04-26T22:06:48.921Z,0.00
2019-04-26T22:07:48.864Z,0.00
2019-04-26T22:08:48.857Z,0.00
2019-04-26T22:09:48.880Z,0.00
2019-04-26T22:10:48.836Z,0.00
2019-04-26T22:11:49.518Z,0.00
2019-04-26T22:12:48.828Z,0.00
2019-04-26T22:13:48.805Z,0.00
2019-04-26T22:14:50.802Z,0.00
2019-04-26T22:15:49.793Z,0.00
2019-04-26T22:16:48.768Z,0.00
2019-04-26T22:17:48.767Z,0.00
2019-04-26T22:18:50.479Z,0.00
2019-04-26T22:19:49.770Z,0.00
2019-04-26T22:20:52.152Z,0.00
2019-04-26T22:21:48.728Z,0.00
2019-04-26T22:22:48.704Z,0.00
2019-04-26T22:23:51.696Z,0.00
2019-04-26T22:24:48.684Z,0.00
2019-04-26T22:25:48.685Z,0.00
2019-04-26T22:26:48.686Z,0.00
2019-04-26T22:27:48.648Z,0.00
2019-04-26T22:28:48.646Z,0.00
2019-04-26T22:29:51.784Z,0.00
2019-04-26T22:30:48.608Z,0.00
2019-04-26T22:31:48.601Z,0.00
2019-04-26T22:32:52.563Z,0.00
2019-04-26T22:33:49.596Z,0.00
2019-04-26T22:34:48.592Z,0.00
2019-04-26T22:35:50.497Z,0.00
2019-04-26T22:36:49.550Z,0.00
2019-04-26T22:37:48.550Z,0.00
2019-04-26T22:38:48.544Z,0.00
2019-04-26T22:39:48.521Z,0.00
2019-04-26T22:40:52.562Z,0.00
2019-04-26T22:41:49.487Z,0.00
2019-04-26T22:42:48.484Z,0.00
2019-04-26T22:43:49.626Z,0.00
2019-04-26T22:44:49.462Z,0.00
2019-04-26T22:45:48.452Z,0.00
2019-04-26T22:46:49.549Z,0.00
2019-04-26T22:47:48.430Z,0.00
2019-04-26T22:48:48.416Z,0.00
2019-04-26T22:49:48.409Z,0.00
2019-04-26T22:50:52.025Z,0.00
2019-04-26T22:51:49.408Z,0.00
2019-04-26T22:52:51.497Z,0.00
2019-04-26T22:53:48.364Z,0.00
2019-04-26T22:54:48.349Z,0.00
2019-04-26T22:55:48.371Z,0.00
2019-04-26T22:56:48.333Z,0.00
2019-04-26T22:57:49.544Z,0.00
2019-04-26T22:58:48.318Z,0.00
2019-04-26T22:59:50.490Z,0.00
2019-04-26T23:00:48.293Z,0.00
2019-04-26T23:01:48.958Z,0.00
2019-04-26T23:02:48.271Z,0.00
2019-04-26T23:03:48.268Z,0.00
2019-04-26T23:04:48.251Z,0.00
2019-04-26T23:05:48.236Z,0.00
2019-04-26T23:06:48.301Z,0.00
2019-04-26T23:07:48.228Z,0.00
2019-04-26T23:08:48.207Z,0.00
2019-04-26T23:09:51.994Z,0.00
2019-04-26T23:10:49.187Z,0.00
2019-04-26T23:11:48.172Z,0.00
2019-04-26T23:12:48.170Z,0.00
2019-04-26T23:13:48.162Z,0.00
2019-04-26T23:14:51.396Z,0.00
2019-04-26T23:15:48.131Z,0.00
2019-04-26T23:17:01.622Z,0.00
2019-04-26T23:17:49.116Z,0.00
2019-04-26T23:18:48.099Z,0.00
2019-04-26T23:19:49.497Z,0.00
2019-04-26T23:20:49.083Z,0.00
2019-04-26T23:21:52.806Z,0.00
2019-04-26T23:22:49.077Z,0.00
2019-04-26T23:23:48.041Z,0.00
2019-04-26T23:24:49.257Z,0.00
2019-04-26T23:25:49.018Z,0.00
2019-04-26T23:26:48.028Z,0.00
2019-04-26T23:27:50.453Z,0.00
2019-04-26T23:28:49.013Z,0.00
2019-04-26T23:29:49.800Z,0.00
2019-04-26T23:30:48.962Z,0.00
2019-04-26T23:31:47.956Z,0.00
2019-04-26T23:32:48.642Z,0.00
2019-04-26T23:33:47.938Z,0.00
2019-04-26T23:34:47.922Z,0.00
2019-04-26T23:35:47.973Z,0.00
2019-04-26T23:36:49.119Z,0.00
2019-04-26T23:37:47.906Z,0.00
2019-04-26T23:38:47.877Z,0.00
2019-04-26T23:39:49.448Z,0.00
2019-04-26T23:40:47.856Z,0.00
2019-04-26T23:41:47.844Z,0.00
2019-04-26T23:42:51.542Z,0.00
2019-04-26T23:43:47.847Z,0.00
2019-04-26T23:44:47.819Z,0.00
2019-04-26T23:45:48.501Z,0.00
2019-04-26T23:46:47.788Z,0.00
2019-04-26T23:47:47.770Z,0.00
2019-04-26T23:48:49.550Z,0.00
2019-04-26T23:49:49.342Z,0.00
2019-04-26T23:50:47.750Z,0.00
2019-04-26T23:51:47.730Z,0.00
2019-04-26T23:52:49.147Z,0.00
2019-04-26T23:53:50.530Z,0.00
2019-04-26T23:54:47.690Z,0.00
2019-04-26T23:55:47.697Z,0.00
2019-04-26T23:56:47.672Z,0.00
2019-04-26T23:57:47.670Z,0.00
2019-04-26T23:58:47.654Z,0.00
2019-04-26T23:59:51.075Z,0.00
